createdAt,value
2018-04-27T00:02:27.113Z,54.98
2018-04-27T00:05:30.391Z,55.44
2018-04-27T00:08:33.679Z,55.05
2018-04-27T00:11:37.034Z,55.46
2018-04-27T00:14:40.329Z,55.90
2018-04-27T00:17:43.745Z,55.83
2018-04-27T00:20:48.055Z,56.17
2018-04-27T00:23:51.357Z,56.80
2018-04-27T00:26:54.736Z,56.60
2018-04-27T00:29:59.000Z,56.91
2018-04-27T00:33:02.182Z,56.51
2018-04-27T00:36:05.517Z,56.26
2018-04-27T00:39:08.872Z,56.03
2018-04-27T00:42:12.269Z,57.25
2018-04-27T00:45:15.661Z,57.68
2018-04-27T00:48:18.829Z,57.62
2018-04-27T00:51:22.104Z,57.62
2018-04-27T00:54:25.446Z,58.36
2018-04-27T00:57:29.743Z,57.98
2018-04-27T01:00:33.069Z,58.81
2018-04-27T01:03:36.285Z,58.68
2018-04-27T01:06:39.503Z,58.42
2018-04-27T01:09:42.768Z,58.07
2018-04-27T01:12:46.091Z,58.74
2018-04-27T01:15:49.425Z,57.63
2018-04-27T01:18:52.797Z,58.20
2018-04-27T01:21:56.156Z,59.51
2018-04-27T01:25:00.476Z,59.41
2018-04-27T01:28:05.820Z,59.44
2018-04-27T01:31:09.245Z,59.78
2018-04-27T01:34:12.460Z,59.00
2018-04-27T01:37:15.815Z,59.56
2018-04-27T01:40:20.259Z,59.54
2018-04-27T01:43:23.550Z,59.15
2018-04-27T01:46:26.993Z,59.64
2018-04-27T01:49:30.347Z,59.30
2018-04-27T01:52:33.572Z,59.66
2018-04-27T01:55:36.924Z,60.54
2018-04-27T01:58:40.212Z,60.08
2018-04-27T02:01:43.530Z,60.32
2018-04-27T02:04:46.940Z,61.34
2018-04-27T02:07:51.435Z,60.11
2018-04-27T02:10:54.837Z,61.53
2018-04-27T02:13:58.242Z,60.42
2018-04-27T02:17:01.539Z,60.90
2018-04-27T02:20:04.999Z,61.80
2018-04-27T02:23:08.344Z,61.18
2018-04-27T02:26:11.640Z,60.67
2018-04-27T02:29:15.039Z,61.14
2018-04-27T02:32:18.356Z,61.19
2018-04-27T02:35:21.630Z,60.92
2018-04-27T02:38:26.039Z,61.25
2018-04-27T02:41:29.346Z,60.93
2018-04-27T02:44:32.679Z,61.05
2018-04-27T02:47:36.074Z,61.59
2018-04-27T02:50:39.372Z,61.76
2018-04-27T02:53:43.660Z,61.83
2018-04-27T02:56:47.093Z,61.65
2018-04-27T02:59:50.377Z,61.57
2018-04-27T03:02:53.660Z,61.24
2018-04-27T03:05:58.091Z,62.55
2018-04-27T03:09:01.315Z,61.54
2018-04-27T03:12:04.603Z,62.49
2018-04-27T03:15:08.004Z,62.55
2018-04-27T03:18:11.361Z,62.56
2018-04-27T03:21:14.678Z,62.60
2018-04-27T03:24:18.966Z,62.16
2018-04-27T03:27:22.216Z,61.95
2018-04-27T03:30:25.804Z,61.44
2018-04-27T03:33:29.104Z,60.48
2018-04-27T03:36:32.432Z,61.50
2018-04-27T03:39:35.806Z,61.54
2018-04-27T03:42:39.151Z,61.62
2018-04-27T03:45:42.468Z,61.62
2018-04-27T03:48:45.681Z,61.22
2018-04-27T03:51:49.135Z,61.52
2018-04-27T03:54:52.388Z,61.64
2018-04-27T03:57:56.554Z,61.73
2018-04-27T04:02:09.885Z,61.83
2018-04-27T04:05:27.185Z,61.66
2018-04-27T04:08:30.568Z,62.06
2018-04-27T04:11:33.861Z,62.17
2018-04-27T04:14:37.111Z,62.37
2018-04-27T04:17:40.453Z,62.31
2018-04-27T04:20:44.028Z,61.94
2018-04-27T04:23:47.362Z,62.37
2018-04-27T04:26:51.895Z,62.44
2018-04-27T04:29:55.912Z,62.04
2018-04-27T04:32:59.192Z,61.89
2018-04-27T04:36:02.521Z,61.97
2018-04-27T04:39:06.049Z,62.06
2018-04-27T04:42:09.242Z,62.20
2018-04-27T04:45:12.602Z,61.69
2018-04-27T04:48:15.891Z,61.68
2018-04-27T04:51:19.196Z,61.87
2018-04-27T04:54:22.486Z,62.61
2018-04-27T04:57:26.974Z,62.53
2018-04-27T05:00:30.330Z,63.39
2018-04-27T05:03:33.711Z,63.58
2018-04-27T05:06:36.984Z,63.16
2018-04-27T05:09:40.325Z,62.69
2018-04-27T05:12:43.592Z,63.05
2018-04-27T05:15:46.947Z,62.49
2018-04-27T05:18:50.313Z,62.96
2018-04-27T05:21:54.675Z,62.37
2018-04-27T05:24:57.997Z,62.34
2018-04-27T05:28:01.349Z,62.05
2018-04-27T05:31:13.483Z,61.60
2018-04-27T05:34:16.822Z,60.39
2018-04-27T05:37:20.107Z,60.65
2018-04-27T05:40:24.371Z,60.13
2018-04-27T05:43:28.560Z,59.68
2018-04-27T05:46:31.945Z,59.47
2018-04-27T05:49:35.250Z,59.22
2018-04-27T05:52:38.648Z,58.23
2018-04-27T05:55:41.904Z,58.71
2018-04-27T05:58:45.235Z,57.68
2018-04-27T06:01:48.671Z,57.82
2018-04-27T06:04:52.061Z,57.88
2018-04-27T06:07:56.437Z,57.52
2018-04-27T06:10:59.738Z,56.63
2018-04-27T06:14:03.058Z,57.35
2018-04-27T06:17:06.270Z,56.16
2018-04-27T06:20:09.723Z,55.97
2018-04-27T06:23:13.197Z,55.35
2018-04-27T06:26:16.710Z,54.93
2018-04-27T06:29:19.936Z,54.38
2018-04-27T06:32:23.252Z,54.65
2018-04-27T06:35:27.005Z,54.62
2018-04-27T06:38:30.340Z,54.11
2018-04-27T06:41:33.776Z,54.08
2018-04-27T06:44:37.075Z,54.16
2018-04-27T06:47:42.261Z,53.49
2018-04-27T06:50:46.304Z,54.00
2018-04-27T06:53:49.534Z,53.78
2018-04-27T06:56:52.933Z,53.02
2018-04-27T06:59:58.312Z,53.09
2018-04-27T07:03:01.681Z,53.29
2018-04-27T07:06:04.983Z,52.45
2018-04-27T07:09:08.537Z,52.08
2018-04-27T07:12:12.036Z,52.38
2018-04-27T07:15:15.467Z,51.75
2018-04-27T07:18:18.747Z,51.28
2018-04-27T07:21:22.238Z,50.59
2018-04-27T07:24:26.056Z,50.67
2018-04-27T07:27:29.428Z,50.47
2018-04-27T07:30:32.906Z,50.05
2018-04-27T07:33:36.304Z,49.97
2018-04-27T07:36:40.603Z,49.70
2018-04-27T07:39:44.133Z,49.14
2018-04-27T07:42:48.588Z,48.61
2018-04-27T07:45:51.892Z,47.58
2018-04-27T07:48:55.070Z,48.08
2018-04-27T07:51:59.672Z,47.75
2018-04-27T07:55:03.917Z,48.09
2018-04-27T07:58:07.261Z,48.16
2018-04-27T08:01:10.593Z,46.71
2018-04-27T08:04:13.940Z,46.37
2018-04-27T08:07:17.411Z,46.78
2018-04-27T08:10:20.658Z,46.16
2018-04-27T08:13:23.921Z,46.27
2018-04-27T08:16:28.329Z,45.38
2018-04-27T08:19:32.056Z,45.06
2018-04-27T08:22:35.581Z,43.87
2018-04-27T08:25:38.915Z,43.37
2018-04-27T08:28:42.472Z,42.75
2018-04-27T08:31:45.764Z,42.65
2018-04-27T08:34:48.932Z,42.88
2018-04-27T08:37:52.329Z,41.63
2018-04-27T08:41:00.319Z,42.33
2018-04-27T08:44:03.745Z,41.19
2018-04-27T08:47:07.110Z,41.17
2018-04-27T08:50:10.464Z,39.56
2018-04-27T08:53:13.820Z,38.68
2018-04-27T08:56:18.170Z,40.23
2018-04-27T08:59:21.537Z,39.78
2018-04-27T09:02:24.849Z,35.02
2018-04-27T09:05:28.795Z,33.52
2018-04-27T09:08:32.113Z,33.83
2018-04-27T09:11:35.380Z,33.09
2018-04-27T09:14:39.705Z,31.96
2018-04-27T09:17:43.075Z,32.94
2018-04-27T09:20:46.452Z,31.48
2018-04-27T09:23:49.766Z,31.41
2018-04-27T09:26:53.066Z,31.67
2018-04-27T09:29:56.257Z,31.41
2018-04-27T09:32:59.782Z,31.51
2018-04-27T09:36:04.189Z,32.00
2018-04-27T09:39:07.441Z,30.35
2018-04-27T09:42:10.761Z,31.57
2018-04-27T09:45:14.101Z,31.21
2018-04-27T09:48:17.374Z,31.56
2018-04-27T09:51:20.872Z,32.24
2018-04-27T09:54:24.094Z,32.58
2018-04-27T09:57:27.557Z,33.09
2018-04-27T10:00:30.929Z,31.72
2018-04-27T10:03:34.207Z,33.05
2018-04-27T10:06:37.578Z,33.54
2018-04-27T10:09:40.958Z,32.81
2018-04-27T10:12:44.343Z,33.07
2018-04-27T10:15:47.672Z,33.15
2018-04-27T10:18:52.136Z,32.34
2018-04-27T10:21:55.544Z,31.54
2018-04-27T10:24:58.848Z,31.88
2018-04-27T10:28:02.130Z,33.20
2018-04-27T10:31:11.504Z,32.36
2018-04-27T10:34:14.737Z,31.94
2018-04-27T10:37:18.299Z,32.05
2018-04-27T10:40:21.733Z,32.84
2018-04-27T10:43:25.333Z,32.66
2018-04-27T10:46:28.484Z,32.09
2018-04-27T10:49:31.759Z,32.09
2018-04-27T10:52:35.126Z,30.68
2018-04-27T10:55:38.531Z,31.58
2018-04-27T10:58:41.730Z,30.92
2018-04-27T11:01:45.145Z,30.91
2018-04-27T11:04:48.582Z,30.67
2018-04-27T11:07:52.124Z,30.60
2018-04-27T11:10:55.316Z,30.32
2018-04-27T11:13:58.572Z,30.67
2018-04-27T11:17:02.036Z,30.66
2018-04-27T11:20:05.831Z,30.71
2018-04-27T11:23:08.967Z,30.27
2018-04-27T11:26:12.218Z,29.70
2018-04-27T11:29:16.377Z,30.58
2018-04-27T11:32:19.660Z,30.43
2018-04-27T11:35:23.039Z,29.73
2018-04-27T11:38:26.389Z,29.73
2018-04-27T11:41:29.674Z,29.27
2018-04-27T11:44:33.012Z,29.73
2018-04-27T11:47:37.686Z,30.01
2018-04-27T11:50:41.088Z,29.59
2018-04-27T11:53:44.362Z,29.04
2018-04-27T11:56:47.746Z,30.05
2018-04-27T11:59:51.776Z,29.14
2018-04-27T12:02:55.184Z,28.72
2018-04-27T12:05:58.569Z,27.84
2018-04-27T12:09:01.983Z,27.80
2018-04-27T12:12:06.399Z,27.73
2018-04-27T12:15:09.681Z,27.22
2018-04-27T12:18:14.135Z,27.25
2018-04-27T12:21:17.836Z,27.94
2018-04-27T12:24:21.206Z,26.89
2018-04-27T12:27:24.502Z,27.26
2018-04-27T12:30:27.755Z,26.95
2018-04-27T12:33:31.111Z,27.82
2018-04-27T12:36:36.352Z,26.90
2018-04-27T12:39:39.755Z,27.40
2018-04-27T12:42:43.588Z,27.00
2018-04-27T12:45:46.970Z,27.43
2018-04-27T12:48:50.255Z,26.13
2018-04-27T12:51:53.598Z,26.56
2018-04-27T12:54:56.911Z,25.92
2018-04-27T12:58:00.221Z,26.60
2018-04-27T13:01:03.544Z,26.17
2018-04-27T13:04:06.691Z,26.42
2018-04-27T13:07:09.989Z,25.56
2018-04-27T13:10:13.951Z,25.93
2018-04-27T13:13:17.607Z,25.48
2018-04-27T13:16:20.868Z,26.13
2018-04-27T13:19:24.257Z,25.92
2018-04-27T13:22:27.636Z,25.12
2018-04-27T13:25:30.948Z,24.45
2018-04-27T13:28:34.314Z,24.67
2018-04-27T13:31:37.564Z,24.27
2018-04-27T13:34:40.829Z,24.27
2018-04-27T13:37:44.526Z,23.63
2018-04-27T13:40:47.999Z,23.90
2018-04-27T13:43:52.022Z,23.98
2018-04-27T13:46:55.606Z,23.39
2018-04-27T13:49:59.026Z,24.14
2018-04-27T13:53:02.523Z,24.28
2018-04-27T13:56:06.771Z,24.25
2018-04-27T13:59:10.510Z,24.97
2018-04-27T14:02:14.205Z,25.30
2018-04-27T14:05:17.566Z,25.55
2018-04-27T14:08:21.082Z,25.37
2018-04-27T14:11:24.656Z,25.25
2018-04-27T14:14:28.175Z,25.54
2018-04-27T14:17:31.785Z,25.61
2018-04-27T14:20:36.618Z,25.61
2018-04-27T14:23:40.243Z,25.81
2018-04-27T14:26:44.152Z,25.58
2018-04-27T14:29:48.160Z,25.20
2018-04-27T14:32:51.739Z,25.24
2018-04-27T14:35:55.730Z,25.04
2018-04-27T14:38:59.386Z,25.46
2018-04-27T14:42:03.395Z,24.74
2018-04-27T14:45:07.807Z,25.58
2018-04-27T14:48:11.405Z,24.81
2018-04-27T14:51:15.333Z,24.86
2018-04-27T14:54:18.901Z,25.08
2018-04-27T14:57:22.945Z,24.99
2018-04-27T15:00:26.965Z,25.20
2018-04-27T15:03:31.062Z,24.62
2018-04-27T15:06:34.982Z,24.79
2018-04-27T15:09:39.012Z,25.63
2018-04-27T15:12:43.030Z,25.02
2018-04-27T15:15:47.019Z,25.31
2018-04-27T15:18:52.013Z,25.57
2018-04-27T15:21:55.545Z,25.57
2018-04-27T15:24:59.204Z,25.16
2018-04-27T15:28:03.071Z,25.42
2018-04-27T15:31:08.173Z,25.60
2018-04-27T15:34:12.129Z,26.32
2018-04-27T15:37:22.713Z,26.73
2018-04-27T15:40:26.035Z,26.96
2018-04-27T15:43:29.597Z,27.22
2018-04-27T15:46:32.833Z,26.88
2018-04-27T15:49:36.086Z,27.18
2018-04-27T15:52:39.442Z,27.09
2018-04-27T15:55:42.700Z,26.82
2018-04-27T15:58:46.177Z,27.32
2018-04-27T16:01:49.546Z,27.59
2018-04-27T16:04:52.872Z,27.29
2018-04-27T16:07:56.803Z,27.17
2018-04-27T16:11:00.140Z,27.51
2018-04-27T16:14:04.593Z,27.60
2018-04-27T16:17:07.893Z,28.08
2018-04-27T16:20:11.363Z,28.19
2018-04-27T16:23:14.672Z,28.79
2018-04-27T16:26:18.709Z,29.15
2018-04-27T16:29:22.191Z,29.16
2018-04-27T16:32:25.429Z,29.25
2018-04-27T16:35:29.341Z,29.53
2018-04-27T16:38:32.759Z,29.10
2018-04-27T16:41:36.134Z,29.73
2018-04-27T16:44:39.488Z,30.20
2018-04-27T16:47:43.124Z,29.49
2018-04-27T16:50:46.526Z,29.66
2018-04-27T16:53:49.787Z,29.87
2018-04-27T16:56:53.164Z,29.90
2018-04-27T16:59:57.596Z,29.89
2018-04-27T17:03:00.860Z,29.83
2018-04-27T17:06:04.144Z,30.09
2018-04-27T17:09:07.432Z,29.81
2018-04-27T17:12:10.925Z,30.01
2018-04-27T17:15:14.204Z,30.10
2018-04-27T17:18:17.603Z,30.82
2018-04-27T17:21:20.928Z,30.43
2018-04-27T17:24:24.348Z,30.53
2018-04-27T17:27:28.204Z,30.01
2018-04-27T17:30:31.416Z,30.08
2018-04-27T17:33:34.628Z,30.84
2018-04-27T17:36:38.059Z,30.68
2018-04-27T17:39:41.442Z,30.52
2018-04-27T17:42:44.614Z,30.41
2018-04-27T17:45:48.029Z,30.88
2018-04-27T17:48:51.250Z,31.23
2018-04-27T17:51:54.487Z,31.01
2018-04-27T17:54:58.190Z,31.27
2018-04-27T17:58:01.512Z,32.19
2018-04-27T18:01:04.863Z,32.57
2018-04-27T18:04:08.127Z,32.76
2018-04-27T18:07:11.529Z,32.78
2018-04-27T18:10:14.841Z,32.93
2018-04-27T18:13:18.052Z,33.48
2018-04-27T18:16:21.276Z,35.85
2018-04-27T18:19:24.575Z,38.82
2018-04-27T18:22:28.279Z,39.60
2018-04-27T18:25:31.542Z,39.80
2018-04-27T18:28:34.945Z,39.58
2018-04-27T18:31:38.579Z,39.41
2018-04-27T18:34:41.860Z,40.12
2018-04-27T18:37:45.280Z,40.78
2018-04-27T18:40:48.544Z,40.77
2018-04-27T18:43:52.037Z,40.51
2018-04-27T18:46:55.588Z,40.56
2018-04-27T18:50:00.470Z,40.77
2018-04-27T18:53:04.100Z,40.57
2018-04-27T18:56:07.431Z,40.56
2018-04-27T18:59:10.708Z,40.56
2018-04-27T19:02:14.012Z,41.63
2018-04-27T19:05:17.412Z,42.37
2018-04-27T19:08:20.840Z,43.15
2018-04-27T19:11:24.335Z,42.85
2018-04-27T19:14:28.789Z,43.98
2018-04-27T19:17:32.448Z,43.98
2018-04-27T19:20:35.746Z,44.77
2018-04-27T19:23:39.147Z,45.54
2018-04-27T19:26:42.544Z,45.65
2018-04-27T19:29:45.857Z,46.46
2018-04-27T19:32:49.177Z,46.75
2018-04-27T19:35:52.490Z,47.09
2018-04-27T19:38:55.856Z,47.57
2018-04-27T19:41:59.188Z,48.75
2018-04-27T19:45:02.456Z,50.09
2018-04-27T19:48:05.759Z,50.21
2018-04-27T19:51:09.143Z,50.60
2018-04-27T19:54:12.464Z,51.39
2018-04-27T19:57:16.777Z,50.52
2018-04-27T20:00:20.928Z,50.61
2018-04-27T20:03:24.376Z,51.10
2018-04-27T20:06:27.787Z,49.71
2018-04-27T20:09:31.061Z,50.07
2018-04-27T20:12:34.572Z,48.98
2018-04-27T20:15:37.907Z,49.21
2018-04-27T20:18:41.228Z,48.81
2018-04-27T20:21:44.665Z,49.12
2018-04-27T20:24:48.029Z,49.77
2018-04-27T20:27:51.452Z,49.49
2018-04-27T20:30:55.536Z,49.44
2018-04-27T20:33:59.157Z,49.50
2018-04-27T20:37:03.048Z,48.55
2018-04-27T20:40:06.402Z,47.21
2018-04-27T20:43:09.898Z,47.41
2018-04-27T20:46:13.296Z,47.76
2018-04-27T20:49:16.556Z,47.25
2018-04-27T20:52:20.071Z,47.69
2018-04-27T20:55:23.920Z,47.53
2018-04-27T20:58:28.281Z,47.44
2018-04-27T21:01:31.763Z,47.75
2018-04-27T21:04:35.139Z,47.81
2018-04-27T21:07:38.448Z,48.23
2018-04-27T21:10:41.791Z,48.50
2018-04-27T21:13:45.073Z,48.09
2018-04-27T21:16:48.335Z,48.19
2018-04-27T21:19:51.996Z,48.14
2018-04-27T21:22:56.093Z,48.24
2018-04-27T21:25:59.425Z,48.85
2018-04-27T21:29:02.732Z,48.78
2018-04-27T21:32:07.227Z,48.92
2018-04-27T21:35:10.681Z,48.72
2018-04-27T21:38:13.957Z,49.10
2018-04-27T21:41:19.070Z,48.95
2018-04-27T21:44:22.434Z,49.43
2018-04-27T21:47:25.834Z,49.45
2018-04-27T21:50:29.299Z,49.01
2018-04-27T21:53:32.688Z,49.98
2018-04-27T21:56:36.334Z,50.44
2018-04-27T21:59:39.834Z,50.77
2018-04-27T22:02:44.230Z,51.10
2018-04-27T22:05:48.011Z,51.55
2018-04-27T22:08:51.443Z,52.17
2018-04-27T22:11:54.828Z,52.35
2018-04-27T22:14:58.060Z,52.17
2018-04-27T22:18:01.409Z,52.46
2018-04-27T22:21:04.860Z,52.98
2018-04-27T22:24:08.236Z,52.60
2018-04-27T22:27:11.551Z,52.11
2018-04-27T22:30:15.016Z,51.98
2018-04-27T22:33:19.459Z,50.75
2018-04-27T22:36:22.986Z,51.40
2018-04-27T22:39:31.025Z,50.69
2018-04-27T22:42:34.913Z,50.76
2018-04-27T22:45:38.393Z,50.81
2018-04-27T22:48:42.152Z,50.65
2018-04-27T22:51:45.504Z,50.96
2018-04-27T22:54:49.006Z,50.51
2018-04-27T22:57:52.402Z,50.54
2018-04-27T23:00:55.789Z,50.74
2018-04-27T23:04:00.006Z,50.96
2018-04-27T23:07:03.238Z,51.49
2018-04-27T23:10:06.768Z,51.56
2018-04-27T23:13:10.124Z,52.78
2018-04-27T23:16:13.492Z,52.10
2018-04-27T23:19:17.229Z,52.23
2018-04-27T23:22:29.376Z,52.79
2018-04-27T23:25:32.664Z,52.81
2018-04-27T23:28:35.928Z,52.63
2018-04-27T23:31:40.592Z,52.77
2018-04-27T23:34:43.955Z,52.77
2018-04-27T23:37:47.359Z,53.72
2018-04-27T23:40:50.746Z,53.03
2018-04-27T23:43:53.955Z,54.45
2018-04-27T23:46:57.340Z,53.28
2018-04-27T23:50:00.685Z,53.06
2018-04-27T23:53:04.241Z,54.08
2018-04-27T23:56:07.597Z,54.32
2018-04-27T23:59:11.080Z,54.73
